sensor_id;sensor_type;location;lat;lon;timestamp;temperature;humidity
78696;SHT31;68030;51.980;5.646;2023-03-19T00:02:03;14.7;64.7
78696;SHT31;68030;51.980;5.646;2023-03-19T00:04:34;14.7;65.1
78696;SHT31;68030;51.980;5.646;2023-03-19T00:07:03;14.7;65.4
78696;SHT31;68030;51.980;5.646;2023-03-19T00:09:35;14.6;65.3
78696;SHT31;68030;51.980;5.646;2023-03-19T00:12:06;14.6;65.5
78696;SHT31;68030;51.980;5.646;2023-03-19T00:14:35;14.6;65.2
78696;SHT31;68030;51.980;5.646;2023-03-19T00:17:05;14.6;65.5
78696;SHT31;68030;51.980;5.646;2023-03-19T00:19:36;14.6;65.4
78696;SHT31;68030;51.980;5.646;2023-03-19T00:22:06;14.6;65.3
78696;SHT31;68030;51.980;5.646;2023-03-19T00:24:36;14.6;65.8
78696;SHT31;68030;51.980;5.646;2023-03-19T00:27:07;14.6;65.5
78696;SHT31;68030;51.980;5.646;2023-03-19T00:29:37;14.6;65.6
78696;SHT31;68030;51.980;5.646;2023-03-19T00:32:08;14.6;65.5
78696;SHT31;68030;51.980;5.646;2023-03-19T00:34:37;14.6;65.6
78696;SHT31;68030;51.980;5.646;2023-03-19T00:37:07;14.6;65.5
78696;SHT31;68030;51.980;5.646;2023-03-19T00:39:38;14.6;65.8
78696;SHT31;68030;51.980;5.646;2023-03-19T00:42:09;14.6;65.8
78696;SHT31;68030;51.980;5.646;2023-03-19T00:44:38;14.6;65.7
78696;SHT31;68030;51.980;5.646;2023-03-19T00:47:08;14.6;65.7
78696;SHT31;68030;51.980;5.646;2023-03-19T00:49:39;14.6;65.5
78696;SHT31;68030;51.980;5.646;2023-03-19T00:52:08;14.6;65.4
78696;SHT31;68030;51.980;5.646;2023-03-19T00:54:38;14.6;65.4
78696;SHT31;68030;51.980;5.646;2023-03-19T00:57:08;14.6;65.3
78696;SHT31;68030;51.980;5.646;2023-03-19T00:59:38;14.6;65.4
78696;SHT31;68030;51.980;5.646;2023-03-19T01:02:08;14.6;65.3
78696;SHT31;68030;51.980;5.646;2023-03-19T01:04:37;14.5;65.1
78696;SHT31;68030;51.980;5.646;2023-03-19T01:07:07;14.5;65.2
78696;SHT31;68030;51.980;5.646;2023-03-19T01:09:38;14.5;65.2
78696;SHT31;68030;51.980;5.646;2023-03-19T01:12:11;14.5;65.2
78696;SHT31;68030;51.980;5.646;2023-03-19T01:14:41;14.4;65.2
78696;SHT31;68030;51.980;5.646;2023-03-19T01:17:11;14.4;65.1
78696;SHT31;68030;51.980;5.646;2023-03-19T01:19:40;14.4;65.3
78696;SHT31;68030;51.980;5.646;2023-03-19T01:22:10;14.4;65.4
78696;SHT31;68030;51.980;5.646;2023-03-19T01:24:40;14.3;65.6
78696;SHT31;68030;51.980;5.646;2023-03-19T01:27:12;14.3;65.6
78696;SHT31;68030;51.980;5.646;2023-03-19T01:29:42;14.3;65.6
78696;SHT31;68030;51.980;5.646;2023-03-19T01:32:13;14.3;65.6
78696;SHT31;68030;51.980;5.646;2023-03-19T01:34:42;14.3;65.7
78696;SHT31;68030;51.980;5.646;2023-03-19T01:37:13;14.2;65.8
78696;SHT31;68030;51.980;5.646;2023-03-19T01:39:42;14.2;65.9
78696;SHT31;68030;51.980;5.646;2023-03-19T01:42:13;14.2;65.7
78696;SHT31;68030;51.980;5.646;2023-03-19T01:44:46;14.2;65.8
78696;SHT31;68030;51.980;5.646;2023-03-19T01:47:23;14.2;65.7
78696;SHT31;68030;51.980;5.646;2023-03-19T01:49:55;14.2;65.8
78696;SHT31;68030;51.980;5.646;2023-03-19T01:52:30;14.2;65.8
78696;SHT31;68030;51.980;5.646;2023-03-19T01:55:06;14.2;65.9
78696;SHT31;68030;51.980;5.646;2023-03-19T01:57:36;14.2;66.0
78696;SHT31;68030;51.980;5.646;2023-03-19T02:00:06;14.2;65.9
78696;SHT31;68030;51.980;5.646;2023-03-19T02:02:37;14.2;66.1
78696;SHT31;68030;51.980;5.646;2023-03-19T02:05:11;14.2;66.1
78696;SHT31;68030;51.980;5.646;2023-03-19T02:07:44;14.2;66.2
78696;SHT31;68030;51.980;5.646;2023-03-19T02:10:16;14.3;65.9
78696;SHT31;68030;51.980;5.646;2023-03-19T02:12:46;14.3;65.9
78696;SHT31;68030;51.980;5.646;2023-03-19T02:15:19;14.3;65.7
78696;SHT31;68030;51.980;5.646;2023-03-19T02:17:49;14.3;65.6
78696;SHT31;68030;51.980;5.646;2023-03-19T02:20:28;14.4;65.6
78696;SHT31;68030;51.980;5.646;2023-03-19T02:23:08;14.4;65.5
78696;SHT31;68030;51.980;5.646;2023-03-19T02:25:54;14.4;65.6
78696;SHT31;68030;51.980;5.646;2023-03-19T02:28:25;14.4;65.6
78696;SHT31;68030;51.980;5.646;2023-03-19T02:30:55;14.4;65.5
78696;SHT31;68030;51.980;5.646;2023-03-19T02:33:26;14.4;65.5
78696;SHT31;68030;51.980;5.646;2023-03-19T02:35:57;14.4;65.4
78696;SHT31;68030;51.980;5.646;2023-03-19T02:38:30;14.4;65.3
78696;SHT31;68030;51.980;5.646;2023-03-19T02:41:04;14.4;65.3
78696;SHT31;68030;51.980;5.646;2023-03-19T02:43:37;14.4;65.3
78696;SHT31;68030;51.980;5.646;2023-03-19T02:46:11;14.4;65.3
78696;SHT31;68030;51.980;5.646;2023-03-19T02:48:41;14.4;65.3
78696;SHT31;68030;51.980;5.646;2023-03-19T02:51:10;14.4;65.3
78696;SHT31;68030;51.980;5.646;2023-03-19T02:53:40;14.4;65.4
78696;SHT31;68030;51.980;5.646;2023-03-19T02:56:09;14.4;65.5
78696;SHT31;68030;51.980;5.646;2023-03-19T02:58:39;14.4;65.4
78696;SHT31;68030;51.980;5.646;2023-03-19T03:01:08;14.4;65.4
78696;SHT31;68030;51.980;5.646;2023-03-19T03:03:38;14.4;65.7
78696;SHT31;68030;51.980;5.646;2023-03-19T03:06:08;14.4;65.4
78696;SHT31;68030;51.980;5.646;2023-03-19T03:08:37;14.4;65.5
78696;SHT31;68030;51.980;5.646;2023-03-19T03:11:07;14.4;65.5
78696;SHT31;68030;51.980;5.646;2023-03-19T03:13:37;14.4;65.8
78696;SHT31;68030;51.980;5.646;2023-03-19T03:16:07;14.4;65.7
78696;SHT31;68030;51.980;5.646;2023-03-19T03:18:36;14.4;65.7
78696;SHT31;68030;51.980;5.646;2023-03-19T03:21:09;14.4;65.6
78696;SHT31;68030;51.980;5.646;2023-03-19T03:23:38;14.4;65.7
78696;SHT31;68030;51.980;5.646;2023-03-19T03:26:08;14.4;65.7
78696;SHT31;68030;51.980;5.646;2023-03-19T03:28:38;14.4;65.6
78696;SHT31;68030;51.980;5.646;2023-03-19T03:31:08;14.4;65.7
78696;SHT31;68030;51.980;5.646;2023-03-19T03:33:38;14.4;65.7
78696;SHT31;68030;51.980;5.646;2023-03-19T03:36:09;14.4;65.6
78696;SHT31;68030;51.980;5.646;2023-03-19T03:38:39;14.4;65.8
78696;SHT31;68030;51.980;5.646;2023-03-19T03:41:09;14.4;65.6
78696;SHT31;68030;51.980;5.646;2023-03-19T03:43:39;14.3;65.8
78696;SHT31;68030;51.980;5.646;2023-03-19T03:46:09;14.3;65.6
78696;SHT31;68030;51.980;5.646;2023-03-19T03:48:38;14.3;65.6
78696;SHT31;68030;51.980;5.646;2023-03-19T03:51:08;14.3;65.7
78696;SHT31;68030;51.980;5.646;2023-03-19T03:53:38;14.3;65.8
78696;SHT31;68030;51.980;5.646;2023-03-19T03:56:10;14.3;65.8
78696;SHT31;68030;51.980;5.646;2023-03-19T03:58:39;14.2;65.8
78696;SHT31;68030;51.980;5.646;2023-03-19T04:01:14;14.2;66.1
78696;SHT31;68030;51.980;5.646;2023-03-19T04:03:44;14.2;66.2
78696;SHT31;68030;51.980;5.646;2023-03-19T04:06:16;14.2;66.3
78696;SHT31;68030;51.980;5.646;2023-03-19T04:08:47;14.2;66.5
78696;SHT31;68030;51.980;5.646;2023-03-19T04:11:17;14.2;66.6
78696;SHT31;68030;51.980;5.646;2023-03-19T04:13:47;14.2;66.6
78696;SHT31;68030;51.980;5.646;2023-03-19T04:16:17;14.2;66.7
78696;SHT31;68030;51.980;5.646;2023-03-19T04:18:47;14.2;66.7
78696;SHT31;68030;51.980;5.646;2023-03-19T04:21:19;14.2;66.8
78696;SHT31;68030;51.980;5.646;2023-03-19T04:23:49;14.2;66.8
78696;SHT31;68030;51.980;5.646;2023-03-19T04:26:18;14.2;66.6
78696;SHT31;68030;51.980;5.646;2023-03-19T04:28:48;14.2;66.5
78696;SHT31;68030;51.980;5.646;2023-03-19T04:31:22;14.2;66.6
78696;SHT31;68030;51.980;5.646;2023-03-19T04:33:51;14.2;66.6
78696;SHT31;68030;51.980;5.646;2023-03-19T04:36:22;14.2;66.5
78696;SHT31;68030;51.980;5.646;2023-03-19T04:38:51;14.2;66.5
78696;SHT31;68030;51.980;5.646;2023-03-19T04:41:23;14.2;66.4
78696;SHT31;68030;51.980;5.646;2023-03-19T04:43:53;14.2;66.3
78696;SHT31;68030;51.980;5.646;2023-03-19T04:46:22;14.1;66.2
78696;SHT31;68030;51.980;5.646;2023-03-19T04:48:54;14.1;66.4
78696;SHT31;68030;51.980;5.646;2023-03-19T04:51:26;14.1;66.6
78696;SHT31;68030;51.980;5.646;2023-03-19T04:53:58;14.1;66.7
78696;SHT31;68030;51.980;5.646;2023-03-19T04:56:27;14.0;66.7
78696;SHT31;68030;51.980;5.646;2023-03-19T04:58:57;14.0;66.8
78696;SHT31;68030;51.980;5.646;2023-03-19T05:01:27;14.0;67.0
78696;SHT31;68030;51.980;5.646;2023-03-19T05:03:56;13.9;67.2
78696;SHT31;68030;51.980;5.646;2023-03-19T05:06:26;13.9;67.4
78696;SHT31;68030;51.980;5.646;2023-03-19T05:08:55;13.9;67.5
78696;SHT31;68030;51.980;5.646;2023-03-19T05:11:25;13.9;67.4
78696;SHT31;68030;51.980;5.646;2023-03-19T05:13:55;13.8;67.2
78696;SHT31;68030;51.980;5.646;2023-03-19T05:16:24;13.8;66.7
78696;SHT31;68030;51.980;5.646;2023-03-19T05:18:54;13.8;66.4
78696;SHT31;68030;51.980;5.646;2023-03-19T05:21:24;13.8;66.2
78696;SHT31;68030;51.980;5.646;2023-03-19T05:23:54;13.7;66.2
78696;SHT31;68030;51.980;5.646;2023-03-19T05:26:25;13.7;66.5
78696;SHT31;68030;51.980;5.646;2023-03-19T05:28:54;13.7;66.5
78696;SHT31;68030;51.980;5.646;2023-03-19T05:31:24;13.6;66.6
78696;SHT31;68030;51.980;5.646;2023-03-19T05:33:54;13.6;66.6
78696;SHT31;68030;51.980;5.646;2023-03-19T05:36:25;13.6;66.7
78696;SHT31;68030;51.980;5.646;2023-03-19T05:38:55;13.6;66.7
78696;SHT31;68030;51.980;5.646;2023-03-19T05:41:25;13.6;66.7
78696;SHT31;68030;51.980;5.646;2023-03-19T05:43:55;13.6;66.6
78696;SHT31;68030;51.980;5.646;2023-03-19T05:46:26;13.6;66.7
78696;SHT31;68030;51.980;5.646;2023-03-19T05:48:56;13.6;66.6
78696;SHT31;68030;51.980;5.646;2023-03-19T05:51:26;13.6;66.5
78696;SHT31;68030;51.980;5.646;2023-03-19T05:53:56;13.6;66.6
78696;SHT31;68030;51.980;5.646;2023-03-19T05:56:26;13.6;66.7
78696;SHT31;68030;51.980;5.646;2023-03-19T05:58:58;13.6;67.0
78696;SHT31;68030;51.980;5.646;2023-03-19T06:01:27;13.6;67.0
78696;SHT31;68030;51.980;5.646;2023-03-19T06:03:57;13.6;67.0
78696;SHT31;68030;51.980;5.646;2023-03-19T06:06:27;13.7;67.1
78696;SHT31;68030;51.980;5.646;2023-03-19T06:09:00;13.7;67.2
78696;SHT31;68030;51.980;5.646;2023-03-19T06:11:30;13.7;67.2
78696;SHT31;68030;51.980;5.646;2023-03-19T06:14:00;13.7;67.4
78696;SHT31;68030;51.980;5.646;2023-03-19T06:16:29;13.7;67.4
78696;SHT31;68030;51.980;5.646;2023-03-19T06:18:59;13.7;67.7
78696;SHT31;68030;51.980;5.646;2023-03-19T06:21:29;13.7;67.8
78696;SHT31;68030;51.980;5.646;2023-03-19T06:23:58;13.8;67.8
78696;SHT31;68030;51.980;5.646;2023-03-19T06:26:28;13.8;67.7
78696;SHT31;68030;51.980;5.646;2023-03-19T06:28:59;13.8;67.8
78696;SHT31;68030;51.980;5.646;2023-03-19T06:31:28;13.8;67.8
78696;SHT31;68030;51.980;5.646;2023-03-19T06:34:00;13.8;67.7
78696;SHT31;68030;51.980;5.646;2023-03-19T06:36:30;13.8;67.7
78696;SHT31;68030;51.980;5.646;2023-03-19T06:39:01;13.9;67.4
78696;SHT31;68030;51.980;5.646;2023-03-19T06:41:31;13.9;67.5
78696;SHT31;68030;51.980;5.646;2023-03-19T06:44:00;13.9;67.7
78696;SHT31;68030;51.980;5.646;2023-03-19T06:46:31;13.9;67.4
78696;SHT31;68030;51.980;5.646;2023-03-19T06:49:01;14.0;67.0
78696;SHT31;68030;51.980;5.646;2023-03-19T06:51:30;14.0;67.0
78696;SHT31;68030;51.980;5.646;2023-03-19T06:54:00;14.0;66.8
78696;SHT31;68030;51.980;5.646;2023-03-19T06:56:30;14.1;66.8
78696;SHT31;68030;51.980;5.646;2023-03-19T06:59:00;14.1;66.8
78696;SHT31;68030;51.980;5.646;2023-03-19T07:01:29;14.1;66.9
78696;SHT31;68030;51.980;5.646;2023-03-19T07:03:59;14.1;66.9
78696;SHT31;68030;51.980;5.646;2023-03-19T07:06:28;14.1;66.8
78696;SHT31;68030;51.980;5.646;2023-03-19T07:09:00;14.1;66.7
78696;SHT31;68030;51.980;5.646;2023-03-19T07:11:30;14.1;66.9
78696;SHT31;68030;51.980;5.646;2023-03-19T07:14:02;14.1;66.9
78696;SHT31;68030;51.980;5.646;2023-03-19T07:16:32;14.2;66.7
78696;SHT31;68030;51.980;5.646;2023-03-19T07:19:02;14.2;66.7
78696;SHT31;68030;51.980;5.646;2023-03-19T07:21:32;14.2;66.4
78696;SHT31;68030;51.980;5.646;2023-03-19T07:24:02;14.2;66.6
78696;SHT31;68030;51.980;5.646;2023-03-19T07:26:32;14.3;66.2
78696;SHT31;68030;51.980;5.646;2023-03-19T07:29:04;14.3;66.1
78696;SHT31;68030;51.980;5.646;2023-03-19T07:31:34;14.3;65.9
78696;SHT31;68030;51.980;5.646;2023-03-19T07:34:04;14.3;66.1
78696;SHT31;68030;51.980;5.646;2023-03-19T07:36:34;14.4;66.1
78696;SHT31;68030;51.980;5.646;2023-03-19T07:39:03;14.4;65.7
78696;SHT31;68030;51.980;5.646;2023-03-19T07:41:33;14.5;64.6
78696;SHT31;68030;51.980;5.646;2023-03-19T07:44:03;14.5;64.8
78696;SHT31;68030;51.980;5.646;2023-03-19T07:46:32;14.5;65.2
78696;SHT31;68030;51.980;5.646;2023-03-19T07:49:02;14.5;64.6
78696;SHT31;68030;51.980;5.646;2023-03-19T07:51:32;14.6;64.2
78696;SHT31;68030;51.980;5.646;2023-03-19T07:54:02;14.6;63.8
78696;SHT31;68030;51.980;5.646;2023-03-19T07:56:34;14.6;64.3
78696;SHT31;68030;51.980;5.646;2023-03-19T07:59:05;14.6;64.2
78696;SHT31;68030;51.980;5.646;2023-03-19T08:01:35;14.7;63.3
78696;SHT31;68030;51.980;5.646;2023-03-19T08:04:05;14.7;63.3
78696;SHT31;68030;51.980;5.646;2023-03-19T08:06:36;14.8;63.6
78696;SHT31;68030;51.980;5.646;2023-03-19T08:09:07;14.8;63.7
78696;SHT31;68030;51.980;5.646;2023-03-19T08:11:37;14.9;63.4
78696;SHT31;68030;51.980;5.646;2023-03-19T08:14:07;14.9;62.4
78696;SHT31;68030;51.980;5.646;2023-03-19T08:16:37;14.9;61.4
78696;SHT31;68030;51.980;5.646;2023-03-19T08:19:06;14.9;61.6
78696;SHT31;68030;51.980;5.646;2023-03-19T08:21:36;15.0;62.1
78696;SHT31;68030;51.980;5.646;2023-03-19T08:24:06;15.0;61.7
78696;SHT31;68030;51.980;5.646;2023-03-19T08:26:36;15.0;61.9
78696;SHT31;68030;51.980;5.646;2023-03-19T08:29:06;15.1;61.8
78696;SHT31;68030;51.980;5.646;2023-03-19T08:31:35;15.1;61.6
78696;SHT31;68030;51.980;5.646;2023-03-19T08:34:07;15.2;60.4
78696;SHT31;68030;51.980;5.646;2023-03-19T08:36:37;15.2;60.5
78696;SHT31;68030;51.980;5.646;2023-03-19T08:39:08;15.3;59.9
78696;SHT31;68030;51.980;5.646;2023-03-19T08:41:38;15.4;60.1
78696;SHT31;68030;51.980;5.646;2023-03-19T08:44:07;15.4;60.4
78696;SHT31;68030;51.980;5.646;2023-03-19T08:46:38;15.5;59.9
78696;SHT31;68030;51.980;5.646;2023-03-19T08:49:08;15.6;59.4
78696;SHT31;68030;51.980;5.646;2023-03-19T08:51:38;15.7;59.4
78696;SHT31;68030;51.980;5.646;2023-03-19T08:54:08;15.8;59.0
78696;SHT31;68030;51.980;5.646;2023-03-19T08:56:40;15.8;58.7
78696;SHT31;68030;51.980;5.646;2023-03-19T08:59:11;15.9;58.4
78696;SHT31;68030;51.980;5.646;2023-03-19T09:01:41;16.0;58.6
78696;SHT31;68030;51.980;5.646;2023-03-19T09:04:11;16.0;58.6
78696;SHT31;68030;51.980;5.646;2023-03-19T09:06:40;16.1;58.0
78696;SHT31;68030;51.980;5.646;2023-03-19T09:09:13;16.2;57.7
78696;SHT31;68030;51.980;5.646;2023-03-19T09:11:43;16.2;57.6
78696;SHT31;68030;51.980;5.646;2023-03-19T09:14:14;16.3;57.7
78696;SHT31;68030;51.980;5.646;2023-03-19T09:16:46;16.4;56.5
78696;SHT31;68030;51.980;5.646;2023-03-19T09:19:16;16.4;56.2
78696;SHT31;68030;51.980;5.646;2023-03-19T09:21:45;16.5;55.6
78696;SHT31;68030;51.980;5.646;2023-03-19T09:24:16;16.5;55.3
78696;SHT31;68030;51.980;5.646;2023-03-19T09:26:49;16.5;55.9
78696;SHT31;68030;51.980;5.646;2023-03-19T09:29:18;16.5;55.7
78696;SHT31;68030;51.980;5.646;2023-03-19T09:31:48;16.5;55.4
78696;SHT31;68030;51.980;5.646;2023-03-19T09:34:18;16.5;55.6
78696;SHT31;68030;51.980;5.646;2023-03-19T09:36:47;16.5;56.1
78696;SHT31;68030;51.980;5.646;2023-03-19T09:39:17;16.5;56.0
78696;SHT31;68030;51.980;5.646;2023-03-19T09:41:59;16.6;56.2
78696;SHT31;68030;51.980;5.646;2023-03-19T09:44:35;16.7;55.7
78696;SHT31;68030;51.980;5.646;2023-03-19T09:47:24;16.7;55.5
78696;SHT31;68030;51.980;5.646;2023-03-19T09:49:57;16.8;54.9
78696;SHT31;68030;51.980;5.646;2023-03-19T09:52:37;16.8;55.0
78696;SHT31;68030;51.980;5.646;2023-03-19T09:55:18;16.9;54.9
78696;SHT31;68030;51.980;5.646;2023-03-19T09:57:55;16.9;54.9
78696;SHT31;68030;51.980;5.646;2023-03-19T10:00:27;16.9;55.2
78696;SHT31;68030;51.980;5.646;2023-03-19T10:03:05;16.9;55.0
78696;SHT31;68030;51.980;5.646;2023-03-19T10:05:49;16.9;54.7
78696;SHT31;68030;51.980;5.646;2023-03-19T10:08:40;16.9;54.6
78696;SHT31;68030;51.980;5.646;2023-03-19T10:11:31;16.9;54.7
78696;SHT31;68030;51.980;5.646;2023-03-19T10:14:23;17.0;54.9
78696;SHT31;68030;51.980;5.646;2023-03-19T10:16:57;17.0;54.5
78696;SHT31;68030;51.980;5.646;2023-03-19T10:19:38;17.0;54.9
78696;SHT31;68030;51.980;5.646;2023-03-19T10:22:15;17.0;54.6
78696;SHT31;68030;51.980;5.646;2023-03-19T10:24:51;17.1;54.4
78696;SHT31;68030;51.980;5.646;2023-03-19T10:27:27;17.1;54.4
78696;SHT31;68030;51.980;5.646;2023-03-19T10:29:56;17.1;54.2
78696;SHT31;68030;51.980;5.646;2023-03-19T10:32:36;17.1;54.3
78696;SHT31;68030;51.980;5.646;2023-03-19T10:35:18;17.1;55.1
78696;SHT31;68030;51.980;5.646;2023-03-19T10:37:49;17.1;54.1
78696;SHT31;68030;51.980;5.646;2023-03-19T10:40:26;17.1;53.7
78696;SHT31;68030;51.980;5.646;2023-03-19T10:43:06;17.1;53.7
78696;SHT31;68030;51.980;5.646;2023-03-19T10:45:40;17.1;53.4
78696;SHT31;68030;51.980;5.646;2023-03-19T10:48:14;17.1;54.0
78696;SHT31;68030;51.980;5.646;2023-03-19T10:50:49;17.1;54.1
78696;SHT31;68030;51.980;5.646;2023-03-19T10:53:31;17.1;53.7
78696;SHT31;68030;51.980;5.646;2023-03-19T10:56:04;17.1;54.3
78696;SHT31;68030;51.980;5.646;2023-03-19T10:58:35;17.1;53.8
78696;SHT31;68030;51.980;5.646;2023-03-19T11:01:09;17.1;54.1
78696;SHT31;68030;51.980;5.646;2023-03-19T11:03:50;17.1;54.0
78696;SHT31;68030;51.980;5.646;2023-03-19T11:06:27;17.2;54.1
78696;SHT31;68030;51.980;5.646;2023-03-19T11:09:02;17.2;54.3
78696;SHT31;68030;51.980;5.646;2023-03-19T11:11:43;17.2;54.6
78696;SHT31;68030;51.980;5.646;2023-03-19T11:14:17;17.2;54.7
78696;SHT31;68030;51.980;5.646;2023-03-19T11:16:54;17.2;54.1
78696;SHT31;68030;51.980;5.646;2023-03-19T11:19:27;17.3;54.0
78696;SHT31;68030;51.980;5.646;2023-03-19T11:22:08;17.3;54.0
78696;SHT31;68030;51.980;5.646;2023-03-19T11:24:41;17.3;54.0
78696;SHT31;68030;51.980;5.646;2023-03-19T11:27:11;17.3;53.8
78696;SHT31;68030;51.980;5.646;2023-03-19T11:29:42;17.2;53.6
78696;SHT31;68030;51.980;5.646;2023-03-19T11:32:32;17.2;53.7
78696;SHT31;68030;51.980;5.646;2023-03-19T11:35:07;17.1;54.0
78696;SHT31;68030;51.980;5.646;2023-03-19T11:37:52;17.0;54.6
78696;SHT31;68030;51.980;5.646;2023-03-19T11:40:40;16.9;54.6
78696;SHT31;68030;51.980;5.646;2023-03-19T11:45:32;16.8;55.2
78696;SHT31;68030;51.980;5.646;2023-03-19T11:48:18;16.7;55.6
78696;SHT31;68030;51.980;5.646;2023-03-19T11:50:57;16.7;56.0
78696;SHT31;68030;51.980;5.646;2023-03-19T11:53:33;16.6;56.0
78696;SHT31;68030;51.980;5.646;2023-03-19T11:56:15;16.6;56.3
78696;SHT31;68030;51.980;5.646;2023-03-19T11:59:11;16.6;56.2
78696;SHT31;68030;51.980;5.646;2023-03-19T12:02:19;16.6;56.0
78696;SHT31;68030;51.980;5.646;2023-03-19T12:05:20;16.6;55.9
78696;SHT31;68030;51.980;5.646;2023-03-19T12:08:06;16.6;56.3
78696;SHT31;68030;51.980;5.646;2023-03-19T12:10:46;16.6;56.2
78696;SHT31;68030;51.980;5.646;2023-03-19T12:13:30;16.6;56.1
78696;SHT31;68030;51.980;5.646;2023-03-19T12:16:16;16.6;56.0
78696;SHT31;68030;51.980;5.646;2023-03-19T12:19:22;16.6;56.0
78696;SHT31;68030;51.980;5.646;2023-03-19T12:22:06;16.6;56.4
78696;SHT31;68030;51.980;5.646;2023-03-19T12:24:54;16.6;55.9
78696;SHT31;68030;51.980;5.646;2023-03-19T12:27:31;16.7;56.1
78696;SHT31;68030;51.980;5.646;2023-03-19T12:30:24;16.8;56.5
78696;SHT31;68030;51.980;5.646;2023-03-19T12:33:20;16.9;55.9
78696;SHT31;68030;51.980;5.646;2023-03-19T12:35:56;17.1;54.9
78696;SHT31;68030;51.980;5.646;2023-03-19T12:38:35;17.2;54.4
78696;SHT31;68030;51.980;5.646;2023-03-19T12:41:08;17.4;53.7
78696;SHT31;68030;51.980;5.646;2023-03-19T12:43:47;17.5;53.3
78696;SHT31;68030;51.980;5.646;2023-03-19T12:46:26;17.6;53.6
78696;SHT31;68030;51.980;5.646;2023-03-19T12:49:03;17.7;53.0
78696;SHT31;68030;51.980;5.646;2023-03-19T12:51:38;17.8;52.4
78696;SHT31;68030;51.980;5.646;2023-03-19T12:54:16;17.9;51.8
78696;SHT31;68030;51.980;5.646;2023-03-19T12:56:53;18.0;51.8
78696;SHT31;68030;51.980;5.646;2023-03-19T12:59:31;18.0;51.7
78696;SHT31;68030;51.980;5.646;2023-03-19T13:02:11;18.0;51.8
78696;SHT31;68030;51.980;5.646;2023-03-19T13:04:54;18.0;51.8
78696;SHT31;68030;51.980;5.646;2023-03-19T13:07:30;17.9;50.9
78696;SHT31;68030;51.980;5.646;2023-03-19T13:10:05;17.9;51.0
78696;SHT31;68030;51.980;5.646;2023-03-19T13:12:37;17.9;51.6
78696;SHT31;68030;51.980;5.646;2023-03-19T13:15:12;17.9;51.6
78696;SHT31;68030;51.980;5.646;2023-03-19T13:17:56;17.8;51.3
78696;SHT31;68030;51.980;5.646;2023-03-19T13:20:45;17.8;51.3
78696;SHT31;68030;51.980;5.646;2023-03-19T13:23:22;17.8;51.4
78696;SHT31;68030;51.980;5.646;2023-03-19T13:25:56;17.7;52.4
78696;SHT31;68030;51.980;5.646;2023-03-19T13:28:30;17.7;52.4
78696;SHT31;68030;51.980;5.646;2023-03-19T13:31:04;17.7;52.7
78696;SHT31;68030;51.980;5.646;2023-03-19T13:33:35;17.7;52.9
78696;SHT31;68030;51.980;5.646;2023-03-19T13:36:12;17.8;52.3
78696;SHT31;68030;51.980;5.646;2023-03-19T13:38:48;17.8;52.0
78696;SHT31;68030;51.980;5.646;2023-03-19T13:41:47;17.8;52.0
78696;SHT31;68030;51.980;5.646;2023-03-19T13:44:33;17.8;51.7
78696;SHT31;68030;51.980;5.646;2023-03-19T13:50:22;17.7;51.9
78696;SHT31;68030;51.980;5.646;2023-03-19T13:53:19;17.7;51.7
78696;SHT31;68030;51.980;5.646;2023-03-19T13:55:50;17.7;51.7
78696;SHT31;68030;51.980;5.646;2023-03-19T13:58:23;17.7;51.5
78696;SHT31;68030;51.980;5.646;2023-03-19T14:01:36;17.7;51.8
78696;SHT31;68030;51.980;5.646;2023-03-19T14:04:17;17.7;52.5
78696;SHT31;68030;51.980;5.646;2023-03-19T14:06:51;17.7;52.0
78696;SHT31;68030;51.980;5.646;2023-03-19T14:11:32;17.7;52.3
78696;SHT31;68030;51.980;5.646;2023-03-19T14:14:04;17.8;51.8
78696;SHT31;68030;51.980;5.646;2023-03-19T14:16:39;17.8;51.1
78696;SHT31;68030;51.980;5.646;2023-03-19T14:19:18;17.8;51.4
78696;SHT31;68030;51.980;5.646;2023-03-19T14:22:15;17.9;51.3
78696;SHT31;68030;51.980;5.646;2023-03-19T14:25:01;17.9;51.0
78696;SHT31;68030;51.980;5.646;2023-03-19T14:27:31;17.8;51.3
78696;SHT31;68030;51.980;5.646;2023-03-19T14:30:15;17.8;51.5
78696;SHT31;68030;51.980;5.646;2023-03-19T14:32:47;17.8;51.2
78696;SHT31;68030;51.980;5.646;2023-03-19T14:35:19;17.8;51.6
78696;SHT31;68030;51.980;5.646;2023-03-19T14:37:51;17.8;51.4
78696;SHT31;68030;51.980;5.646;2023-03-19T14:40:24;17.8;51.6
78696;SHT31;68030;51.980;5.646;2023-03-19T14:43:02;17.8;52.1
78696;SHT31;68030;51.980;5.646;2023-03-19T14:45:53;17.8;51.4
78696;SHT31;68030;51.980;5.646;2023-03-19T14:51:49;17.7;52.4
78696;SHT31;68030;51.980;5.646;2023-03-19T14:54:29;17.7;52.3
78696;SHT31;68030;51.980;5.646;2023-03-19T14:57:06;17.8;52.0
78696;SHT31;68030;51.980;5.646;2023-03-19T14:59:39;17.8;52.2
78696;SHT31;68030;51.980;5.646;2023-03-19T15:02:20;17.9;51.8
78696;SHT31;68030;51.980;5.646;2023-03-19T15:04:51;17.9;51.3
78696;SHT31;68030;51.980;5.646;2023-03-19T15:07:31;17.9;50.8
78696;SHT31;68030;51.980;5.646;2023-03-19T15:10:07;18.0;50.8
78696;SHT31;68030;51.980;5.646;2023-03-19T15:13:03;18.0;51.2
78696;SHT31;68030;51.980;5.646;2023-03-19T15:15:38;18.0;49.9
78696;SHT31;68030;51.980;5.646;2023-03-19T15:18:14;18.0;49.7
78696;SHT31;68030;51.980;5.646;2023-03-19T15:20:50;18.0;50.4
78696;SHT31;68030;51.980;5.646;2023-03-19T15:23:25;18.0;49.8
78696;SHT31;68030;51.980;5.646;2023-03-19T15:25:58;18.1;50.3
78696;SHT31;68030;51.980;5.646;2023-03-19T15:28:31;18.1;49.8
78696;SHT31;68030;51.980;5.646;2023-03-19T15:31:02;18.1;48.9
78696;SHT31;68030;51.980;5.646;2023-03-19T15:33:34;18.0;49.4
78696;SHT31;68030;51.980;5.646;2023-03-19T15:36:07;18.0;49.3
78696;SHT31;68030;51.980;5.646;2023-03-19T15:38:43;18.0;49.6
78696;SHT31;68030;51.980;5.646;2023-03-19T15:41:13;18.0;49.1
78696;SHT31;68030;51.980;5.646;2023-03-19T15:43:45;18.0;48.9
78696;SHT31;68030;51.980;5.646;2023-03-19T15:46:21;18.0;48.5
78696;SHT31;68030;51.980;5.646;2023-03-19T15:48:56;18.0;48.2
78696;SHT31;68030;51.980;5.646;2023-03-19T15:51:28;18.0;48.1
78696;SHT31;68030;51.980;5.646;2023-03-19T15:53:59;17.9;47.6
78696;SHT31;68030;51.980;5.646;2023-03-19T15:56:31;17.9;48.0
78696;SHT31;68030;51.980;5.646;2023-03-19T15:59:02;17.8;48.0
78696;SHT31;68030;51.980;5.646;2023-03-19T16:01:35;17.8;48.3
78696;SHT31;68030;51.980;5.646;2023-03-19T16:04:15;17.7;48.6
78696;SHT31;68030;51.980;5.646;2023-03-19T16:06:49;17.6;49.2
78696;SHT31;68030;51.980;5.646;2023-03-19T16:09:25;17.6;48.8
78696;SHT31;68030;51.980;5.646;2023-03-19T16:11:58;17.5;49.4
78696;SHT31;68030;51.980;5.646;2023-03-19T16:14:34;17.5;49.6
78696;SHT31;68030;51.980;5.646;2023-03-19T16:17:13;17.5;49.9
78696;SHT31;68030;51.980;5.646;2023-03-19T16:19:51;17.4;50.2
78696;SHT31;68030;51.980;5.646;2023-03-19T16:22:24;17.4;50.4
78696;SHT31;68030;51.980;5.646;2023-03-19T16:24:59;17.4;51.3
78696;SHT31;68030;51.980;5.646;2023-03-19T16:27:37;17.3;51.5
78696;SHT31;68030;51.980;5.646;2023-03-19T16:30:15;17.3;51.7
78696;SHT31;68030;51.980;5.646;2023-03-19T16:32:58;17.2;52.2
78696;SHT31;68030;51.980;5.646;2023-03-19T16:35:31;17.2;52.4
78696;SHT31;68030;51.980;5.646;2023-03-19T16:38:13;17.2;52.7
78696;SHT31;68030;51.980;5.646;2023-03-19T16:40:47;17.1;53.1
78696;SHT31;68030;51.980;5.646;2023-03-19T16:43:21;17.1;52.9
78696;SHT31;68030;51.980;5.646;2023-03-19T16:46:04;17.0;53.2
78696;SHT31;68030;51.980;5.646;2023-03-19T16:48:37;17.0;53.5
78696;SHT31;68030;51.980;5.646;2023-03-19T16:51:12;17.0;54.0
78696;SHT31;68030;51.980;5.646;2023-03-19T16:53:47;17.0;53.0
78696;SHT31;68030;51.980;5.646;2023-03-19T16:56:17;17.0;53.1